sensor_id;sensor_type;location;lat;lon;timestamp;P1;durP1;ratioP1;P2;durP2;ratioP2
77038;SDS011;65970;50.476;4.840;2023-09-30T00:02:53;3.35;;;2.33;;
77038;SDS011;65970;50.476;4.840;2023-09-30T00:07:54;3.80;;;2.28;;
77038;SDS011;65970;50.476;4.840;2023-09-30T00:12:54;4.18;;;2.35;;
77038;SDS011;65970;50.476;4.840;2023-09-30T00:17:55;2.58;;;2.10;;
77038;SDS011;65970;50.476;4.840;2023-09-30T00:22:55;4.60;;;2.38;;
77038;SDS011;65970;50.476;4.840;2023-09-30T00:27:56;5.38;;;2.58;;
77038;SDS011;65970;50.476;4.840;2023-09-30T00:32:56;3.53;;;2.30;;
77038;SDS011;65970;50.476;4.840;2023-09-30T00:37:57;4.60;;;1.88;;
77038;SDS011;65970;50.476;4.840;2023-09-30T00:42:58;3.42;;;1.95;;
77038;SDS011;65970;50.476;4.840;2023-09-30T00:47:58;2.75;;;1.98;;
77038;SDS011;65970;50.476;4.840;2023-09-30T00:52:59;2.80;;;2.30;;
77038;SDS011;65970;50.476;4.840;2023-09-30T00:57:59;3.58;;;2.75;;
77038;SDS011;65970;50.476;4.840;2023-09-30T01:03:00;2.30;;;2.10;;
77038;SDS011;65970;50.476;4.840;2023-09-30T01:08:01;2.13;;;1.92;;
77038;SDS011;65970;50.476;4.840;2023-09-30T01:13:02;4.22;;;1.92;;
77038;SDS011;65970;50.476;4.840;2023-09-30T01:18:03;5.50;;;1.95;;
77038;SDS011;65970;50.476;4.840;2023-09-30T01:23:04;2.13;;;1.73;;
77038;SDS011;65970;50.476;4.840;2023-09-30T01:28:07;3.03;;;1.88;;
77038;SDS011;65970;50.476;4.840;2023-09-30T01:38:08;2.97;;;2.08;;
77038;SDS011;65970;50.476;4.840;2023-09-30T01:43:09;3.83;;;2.08;;
77038;SDS011;65970;50.476;4.840;2023-09-30T01:48:10;2.72;;;1.90;;
77038;SDS011;65970;50.476;4.840;2023-09-30T01:53:10;2.13;;;1.60;;
77038;SDS011;65970;50.476;4.840;2023-09-30T01:58:11;3.17;;;2.05;;
77038;SDS011;65970;50.476;4.840;2023-09-30T02:03:12;3.55;;;2.47;;
77038;SDS011;65970;50.476;4.840;2023-09-30T02:08:12;3.80;;;2.05;;
77038;SDS011;65970;50.476;4.840;2023-09-30T02:13:13;2.80;;;2.28;;
77038;SDS011;65970;50.476;4.840;2023-09-30T02:18:13;2.53;;;2.33;;
77038;SDS011;65970;50.476;4.840;2023-09-30T02:23:14;2.95;;;2.25;;
77038;SDS011;65970;50.476;4.840;2023-09-30T02:28:14;2.45;;;2.00;;
77038;SDS011;65970;50.476;4.840;2023-09-30T02:33:15;2.45;;;1.95;;
77038;SDS011;65970;50.476;4.840;2023-09-30T02:38:15;2.75;;;2.40;;
77038;SDS011;65970;50.476;4.840;2023-09-30T02:43:16;2.22;;;2.03;;
77038;SDS011;65970;50.476;4.840;2023-09-30T02:48:16;1.83;;;1.60;;
77038;SDS011;65970;50.476;4.840;2023-09-30T02:53:17;1.90;;;1.70;;
77038;SDS011;65970;50.476;4.840;2023-09-30T02:58:17;1.70;;;1.60;;
77038;SDS011;65970;50.476;4.840;2023-09-30T03:03:18;2.13;;;1.95;;
77038;SDS011;65970;50.476;4.840;2023-09-30T03:08:18;2.10;;;2.00;;
77038;SDS011;65970;50.476;4.840;2023-09-30T03:13:19;2.33;;;1.90;;
77038;SDS011;65970;50.476;4.840;2023-09-30T03:18:19;2.78;;;1.92;;
77038;SDS011;65970;50.476;4.840;2023-09-30T03:23:20;2.50;;;2.08;;
77038;SDS011;65970;50.476;4.840;2023-09-30T03:28:21;2.67;;;2.42;;
77038;SDS011;65970;50.476;4.840;2023-09-30T03:33:21;3.63;;;2.83;;
77038;SDS011;65970;50.476;4.840;2023-09-30T03:38:22;3.95;;;2.38;;
77038;SDS011;65970;50.476;4.840;2023-09-30T03:43:22;3.65;;;2.97;;
77038;SDS011;65970;50.476;4.840;2023-09-30T03:48:23;2.85;;;2.63;;
77038;SDS011;65970;50.476;4.840;2023-09-30T03:53:24;3.05;;;2.58;;
77038;SDS011;65970;50.476;4.840;2023-09-30T03:58:24;3.08;;;2.53;;
77038;SDS011;65970;50.476;4.840;2023-09-30T04:03:25;3.92;;;2.80;;
77038;SDS011;65970;50.476;4.840;2023-09-30T04:08:26;2.88;;;2.67;;
77038;SDS011;65970;50.476;4.840;2023-09-30T04:13:27;3.88;;;3.38;;
77038;SDS011;65970;50.476;4.840;2023-09-30T04:18:28;4.50;;;3.70;;
77038;SDS011;65970;50.476;4.840;2023-09-30T04:23:28;4.15;;;3.05;;
77038;SDS011;65970;50.476;4.840;2023-09-30T04:28:29;3.30;;;2.90;;
77038;SDS011;65970;50.476;4.840;2023-09-30T04:33:29;4.03;;;3.10;;
77038;SDS011;65970;50.476;4.840;2023-09-30T04:38:30;3.47;;;2.85;;
77038;SDS011;65970;50.476;4.840;2023-09-30T04:43:31;5.07;;;4.22;;
77038;SDS011;65970;50.476;4.840;2023-09-30T04:48:31;5.88;;;4.63;;
77038;SDS011;65970;50.476;4.840;2023-09-30T04:53:32;4.50;;;4.10;;
77038;SDS011;65970;50.476;4.840;2023-09-30T04:58:32;4.93;;;3.97;;
77038;SDS011;65970;50.476;4.840;2023-09-30T05:03:33;4.65;;;3.92;;
77038;SDS011;65970;50.476;4.840;2023-09-30T05:08:33;3.78;;;2.40;;
77038;SDS011;65970;50.476;4.840;2023-09-30T05:13:34;2.45;;;2.25;;
77038;SDS011;65970;50.476;4.840;2023-09-30T05:18:34;3.20;;;2.80;;
77038;SDS011;65970;50.476;4.840;2023-09-30T05:23:35;2.65;;;2.45;;
77038;SDS011;65970;50.476;4.840;2023-09-30T05:28:37;2.78;;;2.25;;
77038;SDS011;65970;50.476;4.840;2023-09-30T05:33:37;4.68;;;2.88;;
77038;SDS011;65970;50.476;4.840;2023-09-30T05:38:38;4.88;;;3.22;;
77038;SDS011;65970;50.476;4.840;2023-09-30T05:43:38;3.28;;;2.70;;
77038;SDS011;65970;50.476;4.840;2023-09-30T05:48:39;5.40;;;3.03;;
77038;SDS011;65970;50.476;4.840;2023-09-30T05:53:40;5.30;;;3.55;;
77038;SDS011;65970;50.476;4.840;2023-09-30T05:58:44;13.60;;;4.63;;
77038;SDS011;65970;50.476;4.840;2023-09-30T06:08:46;5.25;;;3.60;;
77038;SDS011;65970;50.476;4.840;2023-09-30T06:13:46;5.55;;;3.55;;
77038;SDS011;65970;50.476;4.840;2023-09-30T06:18:47;7.38;;;4.53;;
77038;SDS011;65970;50.476;4.840;2023-09-30T06:23:47;6.25;;;4.65;;
77038;SDS011;65970;50.476;4.840;2023-09-30T06:28:48;4.85;;;4.13;;
77038;SDS011;65970;50.476;4.840;2023-09-30T06:33:49;5.25;;;4.07;;
77038;SDS011;65970;50.476;4.840;2023-09-30T06:38:49;5.57;;;4.63;;
77038;SDS011;65970;50.476;4.840;2023-09-30T06:43:50;7.57;;;5.50;;
77038;SDS011;65970;50.476;4.840;2023-09-30T06:48:51;7.57;;;5.03;;
77038;SDS011;65970;50.476;4.840;2023-09-30T06:53:51;6.57;;;5.13;;
77038;SDS011;65970;50.476;4.840;2023-09-30T06:58:52;6.78;;;4.78;;
77038;SDS011;65970;50.476;4.840;2023-09-30T07:03:52;7.45;;;5.68;;
77038;SDS011;65970;50.476;4.840;2023-09-30T07:08:53;8.30;;;5.57;;
77038;SDS011;65970;50.476;4.840;2023-09-30T07:13:53;7.22;;;4.72;;
77038;SDS011;65970;50.476;4.840;2023-09-30T07:18:54;9.25;;;7.45;;
77038;SDS011;65970;50.476;4.840;2023-09-30T07:23:54;6.25;;;5.20;;
77038;SDS011;65970;50.476;4.840;2023-09-30T07:28:55;6.68;;;5.18;;
77038;SDS011;65970;50.476;4.840;2023-09-30T07:33:55;8.23;;;5.78;;
77038;SDS011;65970;50.476;4.840;2023-09-30T07:38:56;8.40;;;5.35;;
77038;SDS011;65970;50.476;4.840;2023-09-30T07:43:56;6.07;;;5.03;;
77038;SDS011;65970;50.476;4.840;2023-09-30T07:48:57;5.72;;;4.35;;
77038;SDS011;65970;50.476;4.840;2023-09-30T07:53:57;6.88;;;4.90;;
77038;SDS011;65970;50.476;4.840;2023-09-30T07:58:58;10.38;;;3.95;;
77038;SDS011;65970;50.476;4.840;2023-09-30T08:03:58;5.65;;;3.92;;
77038;SDS011;65970;50.476;4.840;2023-09-30T08:08:59;5.43;;;3.80;;
77038;SDS011;65970;50.476;4.840;2023-09-30T08:13:59;7.60;;;4.57;;
77038;SDS011;65970;50.476;4.840;2023-09-30T08:19:00;4.95;;;4.03;;
77038;SDS011;65970;50.476;4.840;2023-09-30T08:24:01;6.53;;;4.38;;
77038;SDS011;65970;50.476;4.840;2023-09-30T08:29:02;6.93;;;5.03;;
77038;SDS011;65970;50.476;4.840;2023-09-30T08:34:03;8.07;;;4.80;;
77038;SDS011;65970;50.476;4.840;2023-09-30T08:39:03;5.20;;;4.70;;
77038;SDS011;65970;50.476;4.840;2023-09-30T08:44:04;8.07;;;5.05;;
77038;SDS011;65970;50.476;4.840;2023-09-30T08:49:05;6.40;;;4.82;;
77038;SDS011;65970;50.476;4.840;2023-09-30T08:54:05;6.82;;;4.75;;
77038;SDS011;65970;50.476;4.840;2023-09-30T08:59:06;9.60;;;5.50;;
77038;SDS011;65970;50.476;4.840;2023-09-30T09:04:06;7.00;;;5.13;;
77038;SDS011;65970;50.476;4.840;2023-09-30T09:09:17;7.35;;;4.65;;
77038;SDS011;65970;50.476;4.840;2023-09-30T09:14:18;6.82;;;4.82;;
77038;SDS011;65970;50.476;4.840;2023-09-30T09:19:18;8.77;;;4.65;;
77038;SDS011;65970;50.476;4.840;2023-09-30T09:24:32;5.32;;;4.35;;
77038;SDS011;65970;50.476;4.840;2023-09-30T09:29:34;6.80;;;4.65;;
77038;SDS011;65970;50.476;4.840;2023-09-30T09:34:36;5.88;;;4.10;;
77038;SDS011;65970;50.476;4.840;2023-09-30T09:39:37;6.10;;;4.68;;
77038;SDS011;65970;50.476;4.840;2023-09-30T09:44:37;6.78;;;4.05;;
77038;SDS011;65970;50.476;4.840;2023-09-30T09:49:39;6.13;;;4.43;;
77038;SDS011;65970;50.476;4.840;2023-09-30T09:54:39;5.72;;;3.83;;
77038;SDS011;65970;50.476;4.840;2023-09-30T09:59:42;5.28;;;3.50;;
77038;SDS011;65970;50.476;4.840;2023-09-30T10:04:43;7.00;;;3.97;;
77038;SDS011;65970;50.476;4.840;2023-09-30T10:09:46;5.25;;;3.47;;
77038;SDS011;65970;50.476;4.840;2023-09-30T10:14:51;7.13;;;3.92;;
77038;SDS011;65970;50.476;4.840;2023-09-30T10:20:05;5.82;;;3.10;;
77038;SDS011;65970;50.476;4.840;2023-09-30T10:25:32;4.80;;;2.65;;
77038;SDS011;65970;50.476;4.840;2023-09-30T10:30:33;3.90;;;2.95;;
77038;SDS011;65970;50.476;4.840;2023-09-30T10:40:34;4.22;;;3.17;;
77038;SDS011;65970;50.476;4.840;2023-09-30T10:50:51;5.30;;;3.70;;
77038;SDS011;65970;50.476;4.840;2023-09-30T10:55:54;7.78;;;4.63;;
77038;SDS011;65970;50.476;4.840;2023-09-30T11:00:58;4.90;;;3.83;;
77038;SDS011;65970;50.476;4.840;2023-09-30T11:06:01;6.50;;;4.32;;
77038;SDS011;65970;50.476;4.840;2023-09-30T11:16:03;8.50;;;6.07;;
77038;SDS011;65970;50.476;4.840;2023-09-30T11:21:05;5.93;;;4.85;;
77038;SDS011;65970;50.476;4.840;2023-09-30T11:26:07;10.50;;;4.88;;
77038;SDS011;65970;50.476;4.840;2023-09-30T11:31:09;5.68;;;3.95;;
77038;SDS011;65970;50.476;4.840;2023-09-30T11:36:12;5.63;;;3.65;;
77038;SDS011;65970;50.476;4.840;2023-09-30T11:41:12;4.38;;;2.67;;
77038;SDS011;65970;50.476;4.840;2023-09-30T11:46:13;8.65;;;4.47;;
77038;SDS011;65970;50.476;4.840;2023-09-30T11:51:14;3.40;;;2.55;;
77038;SDS011;65970;50.476;4.840;2023-09-30T11:56:14;3.05;;;2.13;;
77038;SDS011;65970;50.476;4.840;2023-09-30T12:01:15;2.38;;;2.13;;
77038;SDS011;65970;50.476;4.840;2023-09-30T12:06:15;4.28;;;2.78;;
77038;SDS011;65970;50.476;4.840;2023-09-30T12:11:16;4.93;;;2.50;;
77038;SDS011;65970;50.476;4.840;2023-09-30T12:16:17;3.55;;;2.00;;
77038;SDS011;65970;50.476;4.840;2023-09-30T12:21:18;3.50;;;0.82;;
77038;SDS011;65970;50.476;4.840;2023-09-30T12:26:18;2.88;;;0.90;;
77038;SDS011;65970;50.476;4.840;2023-09-30T12:31:19;3.10;;;1.02;;
77038;SDS011;65970;50.476;4.840;2023-09-30T12:36:20;2.75;;;1.23;;
77038;SDS011;65970;50.476;4.840;2023-09-30T12:41:21;1.77;;;0.98;;
77038;SDS011;65970;50.476;4.840;2023-09-30T12:46:21;1.70;;;1.10;;
77038;SDS011;65970;50.476;4.840;2023-09-30T12:51:22;1.67;;;1.23;;
77038;SDS011;65970;50.476;4.840;2023-09-30T12:56:23;1.17;;;0.88;;
77038;SDS011;65970;50.476;4.840;2023-09-30T13:01:23;2.75;;;1.05;;
77038;SDS011;65970;50.476;4.840;2023-09-30T13:06:24;0.70;;;0.70;;
77038;SDS011;65970;50.476;4.840;2023-09-30T13:11:25;2.30;;;1.05;;
77038;SDS011;65970;50.476;4.840;2023-09-30T13:16:25;2.35;;;1.52;;
77038;SDS011;65970;50.476;4.840;2023-09-30T13:21:26;1.20;;;0.90;;
77038;SDS011;65970;50.476;4.840;2023-09-30T13:26:26;1.13;;;0.70;;
77038;SDS011;65970;50.476;4.840;2023-09-30T13:31:27;1.60;;;1.48;;
77038;SDS011;65970;50.476;4.840;2023-09-30T13:36:27;0.82;;;0.60;;
77038;SDS011;65970;50.476;4.840;2023-09-30T13:41:28;1.33;;;1.00;;
77038;SDS011;65970;50.476;4.840;2023-09-30T13:46:29;4.50;;;1.10;;
77038;SDS011;65970;50.476;4.840;2023-09-30T13:51:29;3.50;;;1.15;;
77038;SDS011;65970;50.476;4.840;2023-09-30T13:56:30;2.00;;;0.90;;
77038;SDS011;65970;50.476;4.840;2023-09-30T14:01:30;2.35;;;1.52;;
77038;SDS011;65970;50.476;4.840;2023-09-30T14:06:31;1.90;;;1.17;;
77038;SDS011;65970;50.476;4.840;2023-09-30T14:11:31;1.45;;;0.93;;
77038;SDS011;65970;50.476;4.840;2023-09-30T14:16:32;2.35;;;0.82;;
77038;SDS011;65970;50.476;4.840;2023-09-30T14:21:32;1.33;;;1.02;;
77038;SDS011;65970;50.476;4.840;2023-09-30T14:26:33;1.52;;;1.08;;
77038;SDS011;65970;50.476;4.840;2023-09-30T14:31:33;0.80;;;0.65;;
77038;SDS011;65970;50.476;4.840;2023-09-30T14:36:34;1.70;;;0.98;;
77038;SDS011;65970;50.476;4.840;2023-09-30T14:41:35;2.78;;;1.00;;
77038;SDS011;65970;50.476;4.840;2023-09-30T14:46:35;2.60;;;0.82;;
77038;SDS011;65970;50.476;4.840;2023-09-30T14:51:36;2.13;;;1.10;;
77038;SDS011;65970;50.476;4.840;2023-09-30T14:56:36;2.75;;;0.98;;
77038;SDS011;65970;50.476;4.840;2023-09-30T15:01:37;1.42;;;0.63;;
77038;SDS011;65970;50.476;4.840;2023-09-30T15:06:37;1.25;;;0.75;;
77038;SDS011;65970;50.476;4.840;2023-09-30T15:11:38;1.42;;;0.82;;
77038;SDS011;65970;50.476;4.840;2023-09-30T15:16:39;1.67;;;0.63;;
77038;SDS011;65970;50.476;4.840;2023-09-30T15:21:39;0.98;;;0.50;;
77038;SDS011;65970;50.476;4.840;2023-09-30T15:26:40;1.42;;;1.00;;
77038;SDS011;65970;50.476;4.840;2023-09-30T15:31:40;1.42;;;0.90;;
77038;SDS011;65970;50.476;4.840;2023-09-30T15:36:41;1.13;;;0.70;;
77038;SDS011;65970;50.476;4.840;2023-09-30T15:41:41;1.80;;;0.90;;
77038;SDS011;65970;50.476;4.840;2023-09-30T15:46:42;1.85;;;1.38;;
77038;SDS011;65970;50.476;4.840;2023-09-30T15:51:42;3.40;;;1.05;;
77038;SDS011;65970;50.476;4.840;2023-09-30T15:56:43;1.05;;;0.57;;
77038;SDS011;65970;50.476;4.840;2023-09-30T16:01:43;1.55;;;0.70;;
77038;SDS011;65970;50.476;4.840;2023-09-30T16:06:44;0.85;;;0.60;;
77038;SDS011;65970;50.476;4.840;2023-09-30T16:11:44;0.80;;;0.70;;
77038;SDS011;65970;50.476;4.840;2023-09-30T16:16:47;0.65;;;0.65;;
77038;SDS011;65970;50.476;4.840;2023-09-30T16:21:48;2.13;;;0.90;;
77038;SDS011;65970;50.476;4.840;2023-09-30T16:26:49;0.88;;;0.73;;
77038;SDS011;65970;50.476;4.840;2023-09-30T16:31:49;1.00;;;0.70;;
77038;SDS011;65970;50.476;4.840;2023-09-30T16:36:50;2.58;;;0.88;;
77038;SDS011;65970;50.476;4.840;2023-09-30T16:41:50;0.77;;;0.77;;
77038;SDS011;65970;50.476;4.840;2023-09-30T16:46:51;0.93;;;0.70;;
77038;SDS011;65970;50.476;4.840;2023-09-30T16:51:51;1.45;;;0.80;;
77038;SDS011;65970;50.476;4.840;2023-09-30T16:56:52;1.35;;;0.98;;
77038;SDS011;65970;50.476;4.840;2023-09-30T17:01:52;0.60;;;0.60;;
77038;SDS011;65970;50.476;4.840;2023-09-30T17:06:53;1.77;;;0.80;;
77038;SDS011;65970;50.476;4.840;2023-09-30T17:11:53;1.35;;;0.73;;
77038;SDS011;65970;50.476;4.840;2023-09-30T17:16:54;3.75;;;0.90;;
77038;SDS011;65970;50.476;4.840;2023-09-30T17:21:55;3.03;;;1.17;;
77038;SDS011;65970;50.476;4.840;2023-09-30T17:26:55;1.00;;;0.63;;
77038;SDS011;65970;50.476;4.840;2023-09-30T17:31:56;0.95;;;0.68;;
77038;SDS011;65970;50.476;4.840;2023-09-30T17:36:56;1.48;;;0.75;;
77038;SDS011;65970;50.476;4.840;2023-09-30T17:41:57;0.80;;;0.73;;
77038;SDS011;65970;50.476;4.840;2023-09-30T17:46:58;2.58;;;0.80;;
77038;SDS011;65970;50.476;4.840;2023-09-30T17:51:58;2.20;;;0.93;;
77038;SDS011;65970;50.476;4.840;2023-09-30T17:56:59;0.60;;;0.60;;
77038;SDS011;65970;50.476;4.840;2023-09-30T18:01:59;1.05;;;0.68;;
77038;SDS011;65970;50.476;4.840;2023-09-30T18:07:00;3.20;;;0.93;;
77038;SDS011;65970;50.476;4.840;2023-09-30T18:12:00;3.13;;;0.95;;
77038;SDS011;65970;50.476;4.840;2023-09-30T18:17:01;2.80;;;0.98;;
77038;SDS011;65970;50.476;4.840;2023-09-30T18:22:01;1.30;;;0.88;;
77038;SDS011;65970;50.476;4.840;2023-09-30T18:27:02;1.42;;;0.85;;
77038;SDS011;65970;50.476;4.840;2023-09-30T18:32:03;1.27;;;1.08;;
77038;SDS011;65970;50.476;4.840;2023-09-30T18:37:03;3.85;;;1.08;;
77038;SDS011;65970;50.476;4.840;2023-09-30T18:42:04;1.60;;;1.10;;
77038;SDS011;65970;50.476;4.840;2023-09-30T18:47:05;2.47;;;1.45;;
77038;SDS011;65970;50.476;4.840;2023-09-30T18:52:06;2.60;;;2.10;;
77038;SDS011;65970;50.476;4.840;2023-09-30T18:57:06;2.55;;;1.58;;
77038;SDS011;65970;50.476;4.840;2023-09-30T19:02:09;2.20;;;1.55;;
77038;SDS011;65970;50.476;4.840;2023-09-30T19:07:10;2.85;;;1.83;;
77038;SDS011;65970;50.476;4.840;2023-09-30T19:12:10;3.28;;;1.85;;
77038;SDS011;65970;50.476;4.840;2023-09-30T19:17:11;2.97;;;2.00;;
77038;SDS011;65970;50.476;4.840;2023-09-30T19:22:11;4.00;;;2.55;;
77038;SDS011;65970;50.476;4.840;2023-09-30T19:27:12;3.63;;;2.13;;
77038;SDS011;65970;50.476;4.840;2023-09-30T19:32:12;3.97;;;1.75;;
77038;SDS011;65970;50.476;4.840;2023-09-30T19:37:13;2.83;;;2.08;;
77038;SDS011;65970;50.476;4.840;2023-09-30T19:42:14;2.13;;;1.40;;
77038;SDS011;65970;50.476;4.840;2023-09-30T19:47:15;1.40;;;1.30;;
77038;SDS011;65970;50.476;4.840;2023-09-30T19:52:15;2.90;;;2.33;;
77038;SDS011;65970;50.476;4.840;2023-09-30T19:57:16;3.10;;;1.35;;
77038;SDS011;65970;50.476;4.840;2023-09-30T20:02:19;2.55;;;1.75;;
77038;SDS011;65970;50.476;4.840;2023-09-30T20:07:19;4.28;;;1.20;;
77038;SDS011;65970;50.476;4.840;2023-09-30T20:12:20;2.58;;;1.48;;
77038;SDS011;65970;50.476;4.840;2023-09-30T20:17:20;2.33;;;1.27;;
77038;SDS011;65970;50.476;4.840;2023-09-30T20:22:21;2.25;;;1.40;;
77038;SDS011;65970;50.476;4.840;2023-09-30T20:27:21;2.40;;;1.77;;
77038;SDS011;65970;50.476;4.840;2023-09-30T20:32:22;2.40;;;1.70;;
77038;SDS011;65970;50.476;4.840;2023-09-30T20:37:23;4.07;;;1.95;;
77038;SDS011;65970;50.476;4.840;2023-09-30T20:42:23;2.80;;;1.45;;
77038;SDS011;65970;50.476;4.840;2023-09-30T20:47:24;3.33;;;1.67;;
77038;SDS011;65970;50.476;4.840;2023-09-30T20:52:24;1.65;;;1.30;;
77038;SDS011;65970;50.476;4.840;2023-09-30T20:57:25;3.03;;;1.50;;
77038;SDS011;65970;50.476;4.840;2023-09-30T21:02:25;3.95;;;1.55;;
77038;SDS011;65970;50.476;4.840;2023-09-30T21:07:26;3.40;;;1.58;;
77038;SDS011;65970;50.476;4.840;2023-09-30T21:12:26;3.08;;;1.80;;
77038;SDS011;65970;50.476;4.840;2023-09-30T21:17:27;2.78;;;2.00;;
77038;SDS011;65970;50.476;4.840;2023-09-30T21:22:27;4.75;;;2.08;;
77038;SDS011;65970;50.476;4.840;2023-09-30T21:27:28;2.92;;;1.70;;
77038;SDS011;65970;50.476;4.840;2023-09-30T21:32:28;4.07;;;1.42;;
77038;SDS011;65970;50.476;4.840;2023-09-30T21:37:29;3.50;;;1.63;;
77038;SDS011;65970;50.476;4.840;2023-09-30T21:42:29;2.35;;;1.60;;
77038;SDS011;65970;50.476;4.840;2023-09-30T21:47:30;2.33;;;1.60;;
77038;SDS011;65970;50.476;4.840;2023-09-30T21:52:30;2.80;;;1.60;;
77038;SDS011;65970;50.476;4.840;2023-09-30T21:57:31;3.08;;;1.75;;
77038;SDS011;65970;50.476;4.840;2023-09-30T22:02:31;2.75;;;1.88;;
77038;SDS011;65970;50.476;4.840;2023-09-30T22:07:32;3.33;;;1.52;;
77038;SDS011;65970;50.476;4.840;2023-09-30T22:12:33;2.33;;;1.73;;
77038;SDS011;65970;50.476;4.840;2023-09-30T22:17:33;3.38;;;2.03;;
77038;SDS011;65970;50.476;4.840;2023-09-30T22:22:34;2.80;;;1.83;;
77038;SDS011;65970;50.476;4.840;2023-09-30T22:27:34;2.75;;;1.73;;
77038;SDS011;65970;50.476;4.840;2023-09-30T22:32:35;1.85;;;1.67;;
77038;SDS011;65970;50.476;4.840;2023-09-30T22:37:35;1.83;;;1.58;;
77038;SDS011;65970;50.476;4.840;2023-09-30T22:42:36;3.92;;;1.85;;
77038;SDS011;65970;50.476;4.840;2023-09-30T22:47:43;2.72;;;1.40;;
77038;SDS011;65970;50.476;4.840;2023-09-30T22:52:45;2.47;;;1.65;;
77038;SDS011;65970;50.476;4.840;2023-09-30T22:57:46;2.67;;;1.90;;
77038;SDS011;65970;50.476;4.840;2023-09-30T23:02:48;2.45;;;1.98;;
77038;SDS011;65970;50.476;4.840;2023-09-30T23:07:49;3.90;;;1.83;;
77038;SDS011;65970;50.476;4.840;2023-09-30T23:12:49;2.72;;;1.60;;
77038;SDS011;65970;50.476;4.840;2023-09-30T23:17:50;3.10;;;1.63;;
77038;SDS011;65970;50.476;4.840;2023-09-30T23:22:51;2.00;;;1.35;;
77038;SDS011;65970;50.476;4.840;2023-09-30T23:27:55;3.50;;;1.45;;
77038;SDS011;65970;50.476;4.840;2023-09-30T23:32:56;3.60;;;1.75;;
77038;SDS011;65970;50.476;4.840;2023-09-30T23:37:57;2.38;;;1.77;;
77038;SDS011;65970;50.476;4.840;2023-09-30T23:42:58;3.25;;;1.55;;
77038;SDS011;65970;50.476;4.840;2023-09-30T23:47:59;1.70;;;1.50;;
77038;SDS011;65970;50.476;4.840;2023-09-30T23:52:59;5.72;;;1.80;;
77038;SDS011;65970;50.476;4.840;2023-09-30T23:58:00;4.03;;;1.50;;
